Latest Weather Observations for Loxton

IDS60801

Issued at 9:31 am CDT Wednesday 22 February 2017 (issued every 30 minutes, with the page automatically refreshed every 10 minutes)

About weather observations | Map of weather stations | Latest weather observations for SA | Other Formats
Station Details ID: 024024 Name: LOXTON RESEARCH CENTRE Lat: -34.44 Lon: 140.60 Height: 30.1 m
Data from the previous 72 hours. | See also: Recent months at Loxton
Date/Time
CDT
Temp
°C
App
Temp
°C
Dew
Point
°C
Rel
Hum
%
Delta-T
°C
Wind Press
QNH
hPa
Press
MSL
hPa
Rain since
9am
mm
Dir  Spd
km/h
Gust
km/h
Spd
kts
Gust
kts
22/09:00am 23.0 17.4 0.9 23 10.2 NNE 20 32 11 17 1012.1 1012.0 0.0
22/08:30am 20.6 16.1 2.0 29 8.6 NNE 15 24 8 13 1012.5 1012.4 0.0
22/08:00am 17.9 14.9 4.2 40 6.5 NNE 9 13 5 7 1012.4 1012.3 0.0
22/07:30am 12.9 10.9 7.1 68 2.8 NNE 7 9 4 5 1012.1 1012.0 0.0
22/07:00am 11.0 9.0 6.3 73 2.2 NE 6 7 3 4 1012.0 1011.9 0.0
22/06:30am 11.1 10.3 6.7 74 2.1 CALM 0 0 0 0 1011.7 1011.6 0.0
22/06:00am 11.3 9.4 6.9 74 2.1 NE 6 7 3 4 1011.5 1011.4 0.0
22/05:30am 11.6 9.4 6.3 70 2.5 NE 7 9 4 5 1011.4 1011.3 0.0
22/05:00am 11.8 9.6 5.1 63 3.1 ENE 6 7 3 4 1011.4 1011.3 0.0
22/04:30am 11.5 9.5 6.2 70 2.5 E 6 6 3 3 1011.5 1011.4 0.0
22/04:00am 12.0 10.2 7.2 72 2.3 E 6 6 3 3 1011.5 1011.4 0.0
22/03:30am 12.9 10.9 6.4 64 3.1 E 6 7 3 4 1011.7 1011.6 0.0
22/03:00am 12.9 10.5 6.9 67 2.9 ENE 9 13 5 7 1012.0 1011.9 0.0
22/02:30am 13.2 11.3 6.5 64 3.2 ENE 6 9 3 5 1012.4 1012.3 0.0
22/02:00am 13.6 11.8 7.0 64 3.2 NE 6 7 3 4 1013.0 1012.8 0.0
22/01:30am 13.5 11.7 8.1 70 2.7 ENE 7 7 4 4 1013.3 1013.1 0.0
22/01:00am 14.7 12.7 6.2 56 4.1 ENE 6 7 3 4 1013.7 1013.5 0.0
22/12:30am 14.8 12.8 6.3 56 4.1 ENE 6 7 3 4 1013.9 1013.7 0.0
22/12:00am 15.4 13.2 6.1 54 4.5 ENE 7 7 4 4 1014.4 1014.2 0.0
 
Date/Time
CDT
Temp
°C
App
Temp
°C
Dew
Point
°C
Rel
Hum
%
Delta-T
°C
Wind Press
QNH
hPa
Press
MSL
hPa
Rain since
9am
mm
Dir  Spd
km/h
Gust
km/h
Spd
kts
Gust
kts
21/11:30pm 16.1 14.0 5.7 50 5.0 NE 6 7 3 4 1014.8 1014.6 0.0
21/11:00pm 16.8 14.7 6.7 51 5.0 ENE 7 9 4 5 1014.9 1014.7 0.0
21/10:30pm 17.7 14.9 6.9 49 5.4 ENE 11 13 6 7 1015.1 1014.9 0.0
21/10:00pm 18.8 16.2 6.3 44 6.2 ENE 9 11 5 6 1015.1 1014.9 0.0
21/09:30pm 19.5 16.6 6.3 42 6.6 ENE 11 13 6 7 1015.0 1014.8 0.0
21/09:00pm 19.5 17.7 9.3 51 5.4 ENE 9 11 5 6 1014.9 1014.7 0.0
21/08:30pm 21.0 20.1 11.4 54 5.3 ENE 7 9 4 5 1014.7 1014.5 0.0
21/08:00pm 23.0 23.7 12.3 51 6.1 CALM 0 0 0 0 1014.6 1014.4 0.0
21/07:30pm 25.6 24.1 9.3 35 8.9 NE 7 11 4 6 1014.3 1014.1 0.0
21/07:00pm 27.9 24.8 3.6 21 12.2 NNE 9 11 5 6 1014.2 1014.0 0.0
21/06:30pm 28.4 25.3 3.5 20 12.5 NE 9 13 5 7 1014.2 1014.0 0.0
21/06:00pm 28.5 24.0 2.3 18 12.9 NE 15 19 8 10 1014.2 1014.0 0.0
21/05:30pm 28.7 24.7 0.8 16 13.4 ENE 11 19 6 10 1014.4 1014.2 0.0
21/05:00pm 28.7 25.4 2.7 19 12.9 N 9 17 5 9 1014.7 1014.5 0.0
21/04:30pm 28.8 25.2 2.9 19 12.9 NNE 11 17 6 9 1015.3 1015.1 0.0
21/04:00pm 28.2 24.9 2.4 19 12.7 N 9 20 5 11 1015.8 1015.6 0.0
21/03:30pm 27.7 23.8 3.5 21 12.1 N 13 22 7 12 1016.3 1016.1 0.0
21/03:00pm 27.5 23.9 3.1 20 12.1 N 11 19 6 10 1016.7 1016.5 0.0
21/02:30pm 27.1 23.8 2.6 20 12.0 NNW 9 17 5 9 1017.0 1016.8 0.0
21/02:00pm 26.8 24.0 3.0 21 11.7 NNW 7 15 4 8 1017.7 1017.5 0.0
21/01:30pm 25.8 21.4 2.8 22 11.2 NE 15 24 8 13 1018.1 1017.9 0.0
21/01:00pm 25.4 22.0 4.1 25 10.6 NNW 11 22 6 12 1018.4 1018.2 0.0
21/12:30pm 25.2 21.1 4.3 26 10.4 NNE 15 22 8 12 1018.8 1018.6 0.0
21/12:00pm 24.9 20.6 3.1 24 10.6 NNE 15 24 8 13 1019.4 1019.2 0.0
21/11:30am 23.7 19.6 2.5 25 10.1 NNE 13 24 7 13 1019.7 1019.5 0.0
21/11:00am 22.8 18.8 2.9 27 9.5 NNE 13 19 7 10 1020.3 1020.2 0.0
21/10:30am 21.8 19.3 4.9 33 8.3 NNE 7 11 4 6 1020.7 1020.6 0.0
21/10:00am 20.1 16.7 4.0 34 7.7 NE 11 15 6 8 1020.5 1020.4 0.0
21/09:30am 18.4 14.7 4.3 39 6.7 ENE 13 19 7 10 1020.4 1020.3 0.0
21/09:00am 16.6 13.4 5.0 46 5.5 ENE 11 15 6 8 1020.4 1020.3 0.0
21/08:30am 14.7 11.6 5.4 53 4.4 E 11 15 6 8 1020.3 1020.2 0.0
21/08:00am 12.5 9.9 5.9 64 3.1 ESE 9 13 5 7 1019.9 1019.8 0.0
21/07:30am 10.2 8.1 5.9 74 2.0 SE 6 9 3 5 1019.5 1019.3 0.0
21/07:00am 8.4 6.1 5.7 83 1.2 SE 7 9 4 5 1018.9 1018.7 0.0
21/06:30am 8.6 6.3 5.7 82 1.3 SSE 7 9 4 5 1018.8 1018.6 0.0
21/06:00am 8.9 6.6 5.8 81 1.4 SE 7 9 4 5 1018.7 1018.5 0.0
21/05:30am 9.3 6.6 5.8 79 1.6 SSE 9 11 5 6 1018.6 1018.4 0.0
21/05:00am 9.4 7.1 5.9 79 1.6 SSE 7 9 4 5 1018.4 1018.2 0.0
21/04:30am 9.6 7.0 5.9 78 1.7 SSE 9 11 5 6 1018.4 1018.2 0.0
21/04:00am 9.4 8.4 5.7 78 1.7 CALM 0 0 0 0 1018.6 1018.4 0.0
21/03:30am 9.9 8.9 5.8 75 1.9 CALM 0 0 0 0 1018.5 1018.3 0.0
21/03:00am 10.3 8.2 6.0 75 2.0 S 6 7 3 4 1018.4 1018.2 0.0
21/02:30am 11.1 8.7 5.4 68 2.6 S 7 9 4 5 1018.6 1018.4 0.0
21/02:00am 11.9 8.8 5.4 64 3.0 S 11 15 6 8 1018.7 1018.5 0.0
21/01:30am 12.6 9.1 5.3 61 3.4 S 13 17 7 9 1018.8 1018.6 0.0
21/01:00am 12.9 9.3 5.1 59 3.6 S 13 19 7 10 1019.1 1018.9 0.0
21/12:30am 13.4 10.6 5.0 57 3.9 S 9 13 5 7 1019.1 1018.9 0.0
21/12:00am 14.0 10.7 4.7 53 4.3 S 11 15 6 8 1019.2 1019.0 0.0
 
Date/Time
CDT
Temp
°C
App
Temp
°C
Dew
Point
°C
Rel
Hum
%
Delta-T
°C
Wind Press
QNH
hPa
Press
MSL
hPa
Rain since
9am
mm
Dir  Spd
km/h
Gust
km/h
Spd
kts
Gust
kts
20/11:30pm 14.3 11.0 4.8 53 4.4 S 11 13 6 7 1019.0 1018.8 0.0
20/11:00pm 15.3 12.1 4.9 50 4.9 S 11 15 6 8 1019.0 1018.8 0.0
20/10:30pm 16.2 12.5 4.5 45 5.5 S 13 17 7 9 1019.0 1018.8 0.0
20/10:00pm 16.6 13.8 5.0 46 5.5 SSW 9 13 5 7 1018.8 1018.6 0.0
20/09:30pm 17.0 14.2 5.1 45 5.7 S 9 13 5 7 1018.4 1018.2 0.0
20/09:00pm 17.4 14.7 5.4 45 5.8 S 9 11 5 6 1018.1 1017.9 0.0
20/08:30pm 18.7 15.4 4.8 40 6.7 S 11 15 6 8 1017.7 1017.5 0.0
20/08:00pm 20.2 16.1 4.5 35 7.6 S 15 19 8 10 1017.3 1017.1 0.0
20/07:30pm 21.3 16.9 4.5 33 8.2 S 17 22 9 12 1016.7 1016.5 0.0
20/07:00pm 22.4 17.8 3.9 30 9.0 S 17 24 9 13 1016.2 1016.0 0.0
20/06:30pm 23.3 19.1 3.8 28 9.5 S 15 22 8 12 1015.9 1015.7 0.0
20/06:00pm 23.5 19.2 3.2 26 9.8 SSW 15 28 8 15 1015.6 1015.4 0.0
20/05:30pm 23.9 19.9 3.0 25 10.1 S 13 20 7 11 1015.4 1015.2 0.0
20/05:00pm 23.6 18.3 2.0 24 10.2 SSW 19 32 10 17 1015.5 1015.3 0.0
20/04:30pm 23.3 19.6 2.2 25 10.0 S 11 20 6 11 1015.5 1015.3 0.0
20/04:00pm 23.2 19.0 1.6 24 10.1 SSW 13 20 7 11 1015.8 1015.6 0.0
20/03:30pm 21.9 16.7 2.6 28 9.1 SSW 19 26 10 14 1016.1 1015.9 0.0
20/03:00pm 22.5 17.9 1.7 25 9.7 SW 15 24 8 13 1016.2 1016.0 0.0
20/02:30pm 21.9 17.9 2.6 28 9.1 SSW 13 26 7 14 1016.5 1016.3 0.0
20/02:00pm 21.5 17.0 1.9 27 9.1 SSW 15 22 8 12 1016.9 1016.7 0.0
20/01:30pm 21.1 16.6 2.2 28 8.8 SW 15 24 8 13 1017.2 1017.0 0.0
20/01:00pm 20.8 15.9 2.3 29 8.6 SSW 17 26 9 14 1017.6 1017.4 0.0
20/12:30pm 19.7 14.5 2.7 32 7.9 SSW 19 30 10 16 1017.7 1017.5 0.0
20/12:00pm 20.2 15.6 3.5 33 7.9 SSW 17 24 9 13 1017.9 1017.7 0.0
20/11:30am 19.4 14.8 3.8 35 7.4 SSW 17 28 9 15 1018.2 1018.0 0.0
20/11:00am 18.4 14.2 4.0 38 6.8 SSW 15 22 8 12 1018.5 1018.3 0.0
20/10:30am 17.7 13.9 4.1 40 6.4 S 13 20 7 11 1018.9 1018.7 0.0
20/10:00am 16.6 13.3 4.5 44 5.7 WSW 11 19 6 10 1019.1 1018.9 0.0
20/09:30am 16.3 14.0 5.7 49 5.1 S 7 13 4 7 1019.1 1018.9 0.0
20/09:00am 15.5 13.2 5.7 52 4.7 SW 7 11 4 6 1019.0 1018.8 0.0
20/08:30am 14.1 12.0 6.6 60 3.6 SW 7 9 4 5 1018.8 1018.6 0.0
20/08:00am 11.9 11.8 9.3 84 1.3 CALM 0 0 0 0 1018.6 1018.4 0.0
20/07:30am 8.8 8.2 7.3 90 0.7 CALM 0 0 0 0 1018.0 1017.8 0.0
20/07:00am 7.9 7.1 6.6 91 0.6 CALM 0 0 0 0 1017.8 1017.6 0.0
20/06:30am 8.2 7.4 6.7 90 0.7 CALM 0 0 0 0 1017.5 1017.3 0.0
20/06:00am 8.9 7.2 7.4 90 0.7 SW 6 7 3 4 1017.1 1016.9 0.0
20/05:30am 10.4 8.8 8.6 89 0.9 SW 7 9 4 5 1016.9 1016.7 0.0
20/05:00am 10.7 9.2 8.5 86 1.1 WSW 6 7 3 4 1016.6 1016.4 0.0
20/04:30am 11.7 10.1 8.9 83 1.4 WSW 7 9 4 5 1016.6 1016.4 0.0
20/04:00am 12.1 10.2 8.9 81 1.6 SSW 9 13 5 7 1016.4 1016.2 0.0
20/03:30am 12.4 10.0 8.8 79 1.8 SSW 11 15 6 8 1016.3 1016.1 0.0
20/03:00am 12.0 10.1 9.2 83 1.4 SSW 9 11 5 6 1016.1 1015.9 0.0
20/02:30am 11.8 9.5 9.0 83 1.4 SW 11 13 6 7 1016.1 1015.9 0.0
20/02:00am 12.0 9.6 8.8 81 1.6 SW 11 15 6 8 1016.1 1015.9 0.0
20/01:30am 12.4 10.1 9.0 80 1.7 WSW 11 15 6 8 1016.2 1016.0 0.0
20/01:00am 12.6 10.7 9.0 79 1.8 SW 9 13 5 7 1016.2 1016.0 0.0
20/12:30am 12.6 10.7 9.0 79 1.8 SW 9 13 5 7 1016.4 1016.2 0.0
20/12:00am 13.0 11.1 9.0 77 2.0 SW 9 13 5 7 1016.4 1016.2 0.0
 
Date/Time
CDT
Temp
°C
App
Temp
°C
Dew
Point
°C
Rel
Hum
%
Delta-T
°C
Wind Press
QNH
hPa
Press
MSL
hPa
Rain since
9am
mm
Dir  Spd
km/h
Gust
km/h
Spd
kts
Gust
kts
19/11:30pm 13.6 11.3 9.1 74 2.3 SW 11 17 6 9 1016.6 1016.4 0.0
19/11:00pm 14.0 11.8 9.3 73 2.4 SW 11 19 6 10 1016.6 1016.4 0.0
19/10:30pm 14.4 11.8 9.3 71 2.6 SW 13 17 7 9 1016.5 1016.3 0.0
19/10:00pm 14.7 11.7 9.2 69 2.8 SW 15 20 8 11 1016.3 1016.1 0.0
19/09:30pm 15.2 11.9 9.4 68 3.0 SW 17 24 9 13 1016.1 1015.9 0.0
19/09:00pm 16.2 11.6 8.3 59 4.0 SW 22 37 12 20 1015.7 1015.5 0.0
19/08:30pm 16.8 12.6 8.1 56 4.4 SW 20 32 11 17 1015.3 1015.1 0.0
19/08:00pm 17.8 13.4 7.3 50 5.3 SW 20 35 11 19 1014.7 1014.5 0.0
19/07:30pm 18.5 11.9 6.2 44 6.1 SW 30 41 16 22 1014.3 1014.1 0.0
19/07:00pm 19.6 13.2 6.9 43 6.4 SW 30 44 16 24 1013.8 1013.6 0.0
19/06:35pm 20.9 14.3 4.4 34 8.0 WSW 28 46 15 25 1013.5 1013.3 0.0
19/06:30pm 21.0 13.5 4.3 33 8.1 SW 33 46 18 25 1013.5 1013.3 0.0
19/06:04pm 21.2 14.4 4.9 34 8.0 WSW 30 48 16 26 1013.3 1013.1 0.0
19/06:00pm 21.1 13.9 4.8 34 8.0 SW 32 44 17 24 1013.3 1013.1 0.0
19/05:30pm 21.4 15.0 5.0 34 8.1 SW 28 41 15 22 1013.3 1013.1 0.0
19/05:09pm 22.0 15.3 3.5 29 8.9 WSW 28 46 15 25 1013.2 1013.0 0.0
19/05:00pm 21.2 13.6 4.0 32 8.3 SW 33 48 18 26 1013.3 1013.1 0.0
19/04:52pm 21.4 14.6 3.1 30 8.7 SW 28 48 15 26 1013.1 1012.9 0.0
19/04:30pm 21.5 14.9 4.2 32 8.4 SW 28 41 15 22 1013.3 1013.1 0.0
19/04:01pm 21.3 14.8 4.8 34 8.1 WSW 28 46 15 25 1013.5 1013.3 0.0
19/04:00pm 21.4 14.9 4.7 33 8.2 WSW 28 44 15 24 1013.6 1013.4 0.0
19/03:30pm 21.8 15.7 4.7 32 8.4 WSW 26 41 14 22 1013.6 1013.4 0.0
19/03:00pm 21.1 15.2 5.6 36 7.7 WSW 26 39 14 21 1014.2 1014.0 0.0
19/02:30pm 20.8 15.2 5.5 36 7.6 SW 24 33 13 18 1014.2 1014.0 0.0
19/02:00pm 21.1 15.3 6.2 38 7.5 WSW 26 39 14 21 1014.6 1014.4 0.0
19/01:30pm 20.7 15.0 4.7 35 7.8 SW 24 35 13 19 1014.7 1014.5 0.0
19/01:00pm 19.7 14.1 3.4 34 7.7 WSW 22 37 12 20 1014.9 1014.7 0.0
19/12:30pm 18.9 14.2 5.9 42 6.4 W 20 30 11 16 1015.4 1015.2 0.0
19/12:00pm 18.6 14.0 6.3 44 6.1 SW 20 32 11 17 1015.7 1015.5 0.0
19/11:30am 18.5 13.9 6.4 45 6.0 WSW 20 30 11 16 1016.0 1015.8 0.0
19/11:00am 19.0 14.6 6.6 44 6.2 WSW 19 33 10 18 1016.3 1016.1 0.0
19/10:30am 17.0 13.4 8.4 57 4.4 W 17 24 9 13 1016.7 1016.5 0.0
19/10:00am 16.4 12.3 8.6 60 4.0 W 20 32 11 17 1016.6 1016.4 0.0

Other Formats:

Comma delimited format used in spreadsheet applications
http://www.bom.gov.au/fwo/IDS60801/IDS60801.94682.axf

JavaScript Object Notation format (JSON) in row-major order
http://www.bom.gov.au/fwo/IDS60801/IDS60801.94682.json